createdAt,value
2023-01-29T00:01:54.070Z,18.20
2023-01-29T00:04:20.788Z,17.80
2023-01-29T00:06:47.249Z,18.48
2023-01-29T00:09:14.584Z,17.67
2023-01-29T00:11:41.581Z,18.33
2023-01-29T00:14:08.153Z,17.87
2023-01-29T00:16:34.659Z,16.80
2023-01-29T00:19:02.554Z,16.70
2023-01-29T00:21:31.060Z,17.77
2023-01-29T00:23:58.599Z,18.33
2023-01-29T00:26:25.325Z,18.00
2023-01-29T00:28:51.786Z,17.88
2023-01-29T00:31:21.272Z,17.30
2023-01-29T00:33:49.418Z,18.85
2023-01-29T00:36:17.983Z,17.65
2023-01-29T00:38:44.731Z,16.53
2023-01-29T00:41:32.559Z,17.42
2023-01-29T00:44:18.895Z,18.42
2023-01-29T00:46:45.809Z,18.42
2023-01-29T00:49:12.509Z,18.75
2023-01-29T00:51:39.327Z,20.13
2023-01-29T00:54:06.828Z,18.42
2023-01-29T00:56:35.874Z,18.23
2023-01-29T00:59:02.818Z,19.58
2023-01-29T01:01:48.111Z,19.92
2023-01-29T01:04:14.566Z,19.03
2023-01-29T01:06:42.581Z,19.40
2023-01-29T01:09:29.226Z,18.20
2023-01-29T01:11:56.015Z,19.30
2023-01-29T01:14:22.544Z,18.52
2023-01-29T01:16:49.459Z,18.53
2023-01-29T01:19:16.383Z,18.75
2023-01-29T01:21:45.495Z,18.58
2023-01-29T01:24:15.341Z,19.83
2023-01-29T01:26:42.424Z,18.63
2023-01-29T01:29:09.189Z,20.27
2023-01-29T01:31:35.814Z,19.02
2023-01-29T01:34:02.441Z,20.45
2023-01-29T01:36:29.016Z,19.60
2023-01-29T01:38:55.706Z,19.25
2023-01-29T01:41:24.000Z,20.33
2023-01-29T01:43:54.009Z,17.90
2023-01-29T01:46:21.551Z,19.50
2023-01-29T01:48:54.443Z,20.27
2023-01-29T01:51:24.453Z,20.85
2023-01-29T01:53:58.119Z,20.37
2023-01-29T01:56:40.897Z,21.20
2023-01-29T01:59:12.071Z,19.88
2023-01-29T02:01:42.792Z,21.42
2023-01-29T02:04:35.452Z,21.35
2023-01-29T02:07:23.197Z,21.00
2023-01-29T02:10:00.672Z,20.23
2023-01-29T02:12:31.067Z,20.55
2023-01-29T02:14:57.814Z,20.73
2023-01-29T02:17:24.390Z,21.67
2023-01-29T02:20:09.288Z,20.53
2023-01-29T02:22:55.270Z,22.60
2023-01-29T02:25:30.805Z,21.63
2023-01-29T02:28:30.763Z,21.90
2023-01-29T02:31:08.586Z,21.88
2023-01-29T02:33:50.254Z,22.60
2023-01-29T02:36:27.420Z,21.95
2023-01-29T02:39:28.351Z,21.10
2023-01-29T02:42:20.197Z,21.25
2023-01-29T02:45:15.677Z,21.67
2023-01-29T02:48:00.505Z,22.00
2023-01-29T02:50:48.578Z,21.08
2023-01-29T02:53:19.155Z,21.65
2023-01-29T02:56:09.611Z,19.58
2023-01-29T02:58:59.477Z,21.77
2023-01-29T03:01:39.976Z,22.83
2023-01-29T03:04:16.055Z,20.52
2023-01-29T03:06:49.449Z,22.13
2023-01-29T03:09:35.908Z,20.27
2023-01-29T03:12:29.124Z,19.17
2023-01-29T03:15:14.050Z,21.00
2023-01-29T03:17:49.374Z,19.92
2023-01-29T03:20:19.898Z,21.60
2023-01-29T03:22:53.089Z,22.20
2023-01-29T03:25:41.674Z,21.10
2023-01-29T03:28:31.088Z,20.77
2023-01-29T03:31:21.571Z,21.73
2023-01-29T03:34:04.283Z,20.88
2023-01-29T03:36:47.889Z,22.45
2023-01-29T03:39:16.055Z,22.42
2023-01-29T03:41:54.067Z,20.37
2023-01-29T03:44:56.095Z,23.17
2023-01-29T03:47:37.531Z,22.05
2023-01-29T03:50:11.176Z,21.90
2023-01-29T03:52:43.660Z,22.88
2023-01-29T03:55:15.506Z,23.07
2023-01-29T03:57:51.856Z,22.13
2023-01-29T04:00:31.923Z,22.40
2023-01-29T04:03:16.567Z,23.77
2023-01-29T04:05:51.453Z,23.05
2023-01-29T04:08:24.968Z,21.83
2023-01-29T04:10:56.191Z,21.27
2023-01-29T04:13:24.922Z,22.63
2023-01-29T04:15:58.054Z,22.30
2023-01-29T04:18:25.056Z,23.02
2023-01-29T04:20:51.966Z,22.93
2023-01-29T04:23:24.071Z,22.05
2023-01-29T04:26:07.129Z,23.20
2023-01-29T04:28:53.490Z,22.77
2023-01-29T04:31:24.969Z,23.45
2023-01-29T04:34:28.256Z,22.83
2023-01-29T04:37:07.645Z,22.90
2023-01-29T04:39:46.325Z,21.35
2023-01-29T04:42:23.466Z,21.73
2023-01-29T04:45:01.727Z,22.75
2023-01-29T04:47:47.936Z,21.93
2023-01-29T04:50:35.223Z,23.25
2023-01-29T04:53:01.709Z,21.90
2023-01-29T04:55:35.963Z,21.40
2023-01-29T04:58:15.313Z,22.92
2023-01-29T05:00:50.053Z,22.30
2023-01-29T05:03:16.838Z,22.90
2023-01-29T05:05:47.951Z,22.58
2023-01-29T05:08:18.156Z,23.10
2023-01-29T05:10:47.549Z,23.55
2023-01-29T05:13:14.975Z,23.27
2023-01-29T05:16:08.840Z,22.23
2023-01-29T05:18:35.993Z,22.25
2023-01-29T05:21:06.301Z,21.02
2023-01-29T05:23:32.975Z,22.33
2023-01-29T05:25:59.531Z,21.93
2023-01-29T05:28:25.970Z,21.33
2023-01-29T05:30:55.095Z,21.23
2023-01-29T05:33:30.350Z,21.60
2023-01-29T05:35:59.041Z,20.85
2023-01-29T05:38:25.733Z,22.27
2023-01-29T05:40:52.250Z,22.25
2023-01-29T05:43:21.065Z,22.92
2023-01-29T05:45:59.183Z,22.35
2023-01-29T05:48:28.880Z,22.50
2023-01-29T05:51:03.338Z,22.10
2023-01-29T05:53:31.082Z,21.90
2023-01-29T05:56:01.426Z,24.42
2023-01-29T05:58:27.934Z,22.65
2023-01-29T06:00:54.426Z,22.95
2023-01-29T06:03:20.855Z,19.67
2023-01-29T06:05:47.298Z,23.23
2023-01-29T06:08:13.752Z,23.30
2023-01-29T06:10:40.207Z,22.30
2023-01-29T06:13:07.042Z,23.25
2023-01-29T06:15:33.514Z,23.37
2023-01-29T06:18:00.027Z,23.58
2023-01-29T06:20:26.676Z,22.05
2023-01-29T06:22:53.171Z,21.90
2023-01-29T06:25:19.634Z,24.02
2023-01-29T06:27:46.146Z,23.27
2023-01-29T06:30:12.883Z,24.35
2023-01-29T06:32:39.351Z,24.48
2023-01-29T06:35:06.253Z,24.48
2023-01-29T06:37:32.821Z,24.13
2023-01-29T06:39:59.284Z,25.10
2023-01-29T06:42:28.003Z,24.30
2023-01-29T06:44:55.603Z,24.30
2023-01-29T06:47:23.023Z,24.48
2023-01-29T06:49:50.237Z,24.17
2023-01-29T06:52:16.725Z,24.07
2023-01-29T06:54:43.154Z,24.92
2023-01-29T06:57:09.601Z,22.50
2023-01-29T06:59:36.071Z,24.38
2023-01-29T07:02:04.059Z,24.65
2023-01-29T07:04:30.691Z,23.93
2023-01-29T07:06:58.886Z,23.02
2023-01-29T07:09:25.363Z,23.15
2023-01-29T07:11:51.838Z,22.48
2023-01-29T07:14:18.281Z,23.55
2023-01-29T07:16:44.714Z,22.80
2023-01-29T07:19:11.166Z,24.48
2023-01-29T07:21:37.864Z,22.50
2023-01-29T07:24:04.676Z,23.88
2023-01-29T07:26:31.226Z,22.75
2023-01-29T07:28:57.653Z,22.00
2023-01-29T07:31:24.183Z,20.77
2023-01-29T07:33:50.712Z,20.90
2023-01-29T07:36:17.173Z,22.05
2023-01-29T07:38:43.636Z,22.40
2023-01-29T07:41:11.574Z,22.90
2023-01-29T07:43:38.126Z,22.75
2023-01-29T07:46:05.233Z,22.00
2023-01-29T07:48:31.898Z,21.58
2023-01-29T07:50:59.085Z,21.90
2023-01-29T07:53:27.010Z,20.73
2023-01-29T07:55:53.631Z,20.63
2023-01-29T07:58:20.144Z,20.83
2023-01-29T08:00:46.644Z,21.27
2023-01-29T08:03:20.084Z,21.10
2023-01-29T08:05:46.970Z,22.33
2023-01-29T08:08:13.528Z,21.85
2023-01-29T08:10:40.649Z,20.17
2023-01-29T08:13:08.174Z,20.92
2023-01-29T08:15:37.939Z,21.80
2023-01-29T08:18:05.611Z,20.80
2023-01-29T08:20:32.182Z,21.65
2023-01-29T08:23:03.310Z,19.45
2023-01-29T08:25:30.276Z,19.90
2023-01-29T08:28:00.574Z,20.05
2023-01-29T08:30:29.298Z,21.03
2023-01-29T08:32:55.766Z,19.35
2023-01-29T08:35:22.284Z,17.52
2023-01-29T08:37:56.061Z,21.27
2023-01-29T08:40:22.610Z,19.48
2023-01-29T08:42:49.190Z,17.83
2023-01-29T08:45:15.953Z,20.10
2023-01-29T08:47:49.937Z,21.55
2023-01-29T08:50:17.979Z,20.85
2023-01-29T08:52:45.466Z,21.02
2023-01-29T08:55:12.456Z,21.50
2023-01-29T08:57:39.229Z,19.58
2023-01-29T09:00:07.417Z,20.85
2023-01-29T09:02:33.983Z,20.35
2023-01-29T09:05:00.503Z,21.73
2023-01-29T09:07:27.027Z,19.17
2023-01-29T09:09:53.471Z,19.50
2023-01-29T09:12:19.945Z,17.58
2023-01-29T09:14:46.582Z,20.35
2023-01-29T09:17:13.042Z,19.42
2023-01-29T09:19:39.514Z,19.00
2023-01-29T09:22:05.952Z,16.58
2023-01-29T09:24:32.838Z,20.55
2023-01-29T09:26:59.299Z,20.23
2023-01-29T09:29:25.741Z,17.27
2023-01-29T09:31:52.940Z,17.93
2023-01-29T09:34:19.591Z,19.50
2023-01-29T09:36:46.347Z,17.48
2023-01-29T09:39:12.878Z,16.75
2023-01-29T09:41:49.342Z,20.20
2023-01-29T09:44:46.359Z,18.50
2023-01-29T09:47:15.952Z,18.10
2023-01-29T09:50:05.845Z,18.55
2023-01-29T09:52:38.672Z,18.77
2023-01-29T09:55:21.116Z,18.92
2023-01-29T09:58:00.145Z,19.90
2023-01-29T10:00:35.390Z,18.15
2023-01-29T10:03:17.037Z,19.77
2023-01-29T10:06:00.122Z,19.08
2023-01-29T10:08:44.822Z,21.13
2023-01-29T10:11:26.274Z,19.10
2023-01-29T10:14:17.772Z,19.90
2023-01-29T10:17:21.865Z,18.52
2023-01-29T10:20:25.276Z,20.13
2023-01-29T10:22:51.652Z,19.58
2023-01-29T10:25:21.404Z,18.43
2023-01-29T10:27:54.963Z,19.45
2023-01-29T10:30:29.130Z,19.58
2023-01-29T10:33:04.949Z,18.77
2023-01-29T10:35:41.042Z,17.02
2023-01-29T10:38:45.999Z,19.70
2023-01-29T10:41:56.266Z,19.95
2023-01-29T10:45:20.369Z,18.50
2023-01-29T10:48:11.671Z,18.65
2023-01-29T10:50:50.633Z,20.48
2023-01-29T10:53:39.823Z,21.80
2023-01-29T10:56:34.510Z,21.67
2023-01-29T10:59:15.563Z,18.70
2023-01-29T11:01:42.103Z,17.90
2023-01-29T11:04:12.764Z,18.83
2023-01-29T11:06:39.226Z,19.87
2023-01-29T11:09:23.914Z,19.50
2023-01-29T11:12:01.511Z,20.77
2023-01-29T11:14:44.445Z,21.05
2023-01-29T11:17:19.086Z,20.10
2023-01-29T11:19:47.522Z,19.57
2023-01-29T11:22:25.130Z,20.48
2023-01-29T11:25:16.631Z,16.50
2023-01-29T11:27:53.010Z,21.13
2023-01-29T11:30:30.490Z,21.10
2023-01-29T11:33:19.625Z,20.70
2023-01-29T11:35:46.525Z,21.77
2023-01-29T11:38:15.936Z,20.85
2023-01-29T11:40:43.511Z,21.85
2023-01-29T11:43:30.623Z,23.30
2023-01-29T11:46:05.513Z,22.17
2023-01-29T11:48:45.918Z,20.75
2023-01-29T11:51:22.404Z,21.65
2023-01-29T11:53:59.793Z,23.38
2023-01-29T11:56:32.944Z,24.48
2023-01-29T11:59:04.409Z,20.60
2023-01-29T12:01:36.295Z,20.30
2023-01-29T12:04:04.798Z,24.75
2023-01-29T12:06:37.910Z,19.83
2023-01-29T12:09:15.517Z,20.38
2023-01-29T12:11:42.839Z,22.20
2023-01-29T12:14:29.967Z,19.50
2023-01-29T12:17:21.372Z,22.80
2023-01-29T12:19:54.733Z,21.45
2023-01-29T12:22:33.187Z,23.30
2023-01-29T12:25:10.031Z,25.63
2023-01-29T12:27:46.211Z,16.88
2023-01-29T12:30:24.853Z,23.27
2023-01-29T12:33:13.470Z,23.38
2023-01-29T12:35:48.156Z,23.23
2023-01-29T12:38:23.145Z,23.13
2023-01-29T12:41:06.262Z,23.25
2023-01-29T12:43:51.385Z,23.42
2023-01-29T12:46:29.105Z,21.63
2023-01-29T12:48:59.064Z,25.55
2023-01-29T12:51:31.256Z,23.77
2023-01-29T12:54:05.835Z,22.17
2023-01-29T12:56:42.911Z,21.75
2023-01-29T12:59:45.730Z,22.75
2023-01-29T13:02:18.589Z,27.38
2023-01-29T13:04:53.342Z,22.87
2023-01-29T13:07:25.850Z,24.35
2023-01-29T13:09:56.955Z,25.55
2023-01-29T13:12:24.598Z,24.63
2023-01-29T13:14:56.468Z,21.45
2023-01-29T13:17:37.721Z,24.20
2023-01-29T13:20:12.966Z,23.00
2023-01-29T13:22:42.651Z,21.05
2023-01-29T13:25:18.172Z,24.02
2023-01-29T13:27:47.651Z,25.38
2023-01-29T13:30:24.447Z,22.60
2023-01-29T13:32:54.385Z,25.70
2023-01-29T13:35:23.595Z,23.85
2023-01-29T13:37:53.529Z,24.60
2023-01-29T13:40:28.963Z,22.27
2023-01-29T13:42:59.875Z,21.63
2023-01-29T13:45:29.976Z,20.67
2023-01-29T13:48:09.800Z,21.45
2023-01-29T13:50:39.986Z,22.88
2023-01-29T13:53:09.107Z,23.42
2023-01-29T13:55:38.329Z,24.23
2023-01-29T13:58:37.963Z,22.75
2023-01-29T14:01:04.716Z,23.88
2023-01-29T14:03:45.025Z,22.52
2023-01-29T14:06:40.043Z,21.65
2023-01-29T14:09:34.035Z,21.83
2023-01-29T14:12:00.684Z,20.60
2023-01-29T14:14:48.942Z,17.25
2023-01-29T14:17:17.228Z,21.23
2023-01-29T14:19:54.687Z,23.63
2023-01-29T14:22:24.687Z,24.03
2023-01-29T14:24:57.210Z,22.98
2023-01-29T14:27:28.036Z,23.73
2023-01-29T14:30:06.123Z,24.30
2023-01-29T14:32:33.452Z,22.08
2023-01-29T14:35:02.752Z,22.60
2023-01-29T14:37:35.410Z,25.83
2023-01-29T14:40:26.398Z,23.35
2023-01-29T14:43:19.922Z,21.17
2023-01-29T14:45:49.936Z,24.80
2023-01-29T14:48:35.176Z,25.17
2023-01-29T14:51:20.671Z,24.10
2023-01-29T14:54:02.822Z,21.17
2023-01-29T14:56:34.142Z,23.85
2023-01-29T14:59:27.051Z,24.67
2023-01-29T15:01:56.496Z,23.97
2023-01-29T15:04:38.358Z,21.38
2023-01-29T15:07:23.018Z,23.63
2023-01-29T15:10:21.326Z,26.13
2023-01-29T15:13:09.311Z,23.30
2023-01-29T15:15:52.792Z,23.13
2023-01-29T15:18:29.043Z,22.63
2023-01-29T15:21:15.723Z,24.50
2023-01-29T15:23:47.769Z,23.55
2023-01-29T15:26:24.757Z,22.85
2023-01-29T15:29:04.169Z,23.47
2023-01-29T15:31:32.033Z,25.38
2023-01-29T15:34:07.643Z,24.88
2023-01-29T15:36:36.545Z,22.33
2023-01-29T15:39:16.296Z,26.70
2023-01-29T15:41:44.270Z,24.80
2023-01-29T15:44:26.882Z,27.23
2023-01-29T15:46:56.945Z,25.55
2023-01-29T15:49:33.837Z,24.85
2023-01-29T15:52:04.705Z,23.80
2023-01-29T15:54:33.746Z,22.17
2023-01-29T15:57:01.808Z,21.77
2023-01-29T15:59:41.664Z,23.27
2023-01-29T16:02:37.666Z,22.83
2023-01-29T16:05:17.776Z,22.40
2023-01-29T16:07:45.271Z,22.07
2023-01-29T16:10:20.291Z,22.98
2023-01-29T16:12:51.395Z,23.38
2023-01-29T16:15:32.125Z,23.17
2023-01-29T16:18:00.228Z,23.15
2023-01-29T16:20:37.604Z,25.60
2023-01-29T16:23:05.481Z,24.67
2023-01-29T16:25:34.815Z,21.48
2023-01-29T16:28:05.450Z,26.85
2023-01-29T16:30:32.101Z,25.10
2023-01-29T16:33:07.561Z,25.37
2023-01-29T16:35:35.755Z,20.73
2023-01-29T16:38:15.119Z,22.15
2023-01-29T16:41:27.755Z,20.25
2023-01-29T16:44:01.706Z,26.75
2023-01-29T16:46:45.527Z,25.40
2023-01-29T16:49:30.441Z,25.40
2023-01-29T16:52:16.735Z,25.70
2023-01-29T16:54:43.335Z,24.30
2023-01-29T16:57:35.796Z,23.65
2023-01-29T17:00:08.742Z,19.77
2023-01-29T17:02:39.218Z,24.05
2023-01-29T17:05:10.033Z,23.85
2023-01-29T17:07:37.978Z,25.38
2023-01-29T17:10:06.718Z,24.25
2023-01-29T17:12:33.940Z,22.10
2023-01-29T17:15:03.982Z,26.08
2023-01-29T17:17:34.100Z,23.02
2023-01-29T17:20:14.042Z,26.30
2023-01-29T17:22:40.663Z,24.58
2023-01-29T17:25:07.689Z,22.73
2023-01-29T17:27:34.126Z,22.20
2023-01-29T17:30:00.619Z,25.08
2023-01-29T17:32:44.128Z,23.52
2023-01-29T17:35:16.397Z,25.13
2023-01-29T17:37:44.314Z,22.57
2023-01-29T17:40:39.336Z,24.10
2023-01-29T17:43:06.934Z,22.77
2023-01-29T17:45:33.768Z,20.55
2023-01-29T17:48:00.287Z,24.63
2023-01-29T17:50:30.209Z,24.07
2023-01-29T17:52:56.682Z,21.63
2023-01-29T17:55:23.193Z,23.33
2023-01-29T17:57:49.953Z,23.45
2023-01-29T18:00:19.809Z,18.33
2023-01-29T18:02:46.652Z,24.60
2023-01-29T18:05:14.769Z,21.05
2023-01-29T18:07:42.878Z,24.65
2023-01-29T18:10:27.283Z,22.88
2023-01-29T18:12:53.773Z,21.13
2023-01-29T18:15:20.790Z,23.43
2023-01-29T18:17:48.401Z,23.75
2023-01-29T18:20:22.586Z,22.27
2023-01-29T18:22:49.415Z,24.20
2023-01-29T18:25:16.363Z,21.92
2023-01-29T18:27:43.277Z,24.57
2023-01-29T18:30:10.556Z,23.73
2023-01-29T18:32:37.214Z,27.63
2023-01-29T18:35:05.826Z,21.63
2023-01-29T18:37:33.194Z,23.60
2023-01-29T18:40:00.126Z,25.50
2023-01-29T18:42:26.570Z,23.95
2023-01-29T18:44:53.102Z,21.42
2023-01-29T18:47:19.645Z,21.50
2023-01-29T18:49:46.178Z,25.05
2023-01-29T18:52:12.702Z,21.60
2023-01-29T18:54:39.211Z,22.65
2023-01-29T18:57:13.640Z,23.90
2023-01-29T18:59:52.153Z,21.33
2023-01-29T19:02:22.042Z,23.27
2023-01-29T19:04:48.544Z,23.23
2023-01-29T19:07:15.411Z,22.60
2023-01-29T19:09:43.103Z,22.17
2023-01-29T19:12:09.645Z,20.83
2023-01-29T19:14:36.096Z,24.55
2023-01-29T19:17:04.584Z,26.10
2023-01-29T19:19:31.488Z,26.67
2023-01-29T19:21:58.190Z,22.23
2023-01-29T19:24:24.699Z,21.52
2023-01-29T19:26:51.292Z,21.02
2023-01-29T19:29:18.113Z,23.03
2023-01-29T19:31:44.740Z,23.65
2023-01-29T19:34:11.322Z,24.63
2023-01-29T19:36:37.809Z,24.77
2023-01-29T19:39:04.584Z,26.23
2023-01-29T19:41:31.129Z,26.23
2023-01-29T19:43:57.610Z,24.08
2023-01-29T19:46:24.146Z,26.33
2023-01-29T19:48:50.618Z,24.42
2023-01-29T19:51:17.162Z,22.83
2023-01-29T19:53:44.199Z,24.87
2023-01-29T19:56:16.246Z,26.30
2023-01-29T19:58:43.103Z,28.48
2023-01-29T20:01:14.287Z,23.30
2023-01-29T20:03:46.498Z,26.60
2023-01-29T20:06:15.580Z,24.10
2023-01-29T20:08:42.703Z,24.60
2023-01-29T20:11:10.008Z,24.42
2023-01-29T20:13:36.557Z,26.15
2023-01-29T20:16:04.744Z,27.33
2023-01-29T20:18:31.992Z,26.40
2023-01-29T20:20:58.748Z,24.50
2023-01-29T20:23:37.122Z,25.73
2023-01-29T20:26:04.841Z,22.80
2023-01-29T20:28:31.360Z,25.00
2023-01-29T20:30:59.016Z,25.73
2023-01-29T20:33:26.285Z,24.67
2023-01-29T20:36:00.933Z,25.73
2023-01-29T20:38:30.460Z,27.08
2023-01-29T20:41:23.234Z,25.02
2023-01-29T20:43:50.936Z,23.83
2023-01-29T20:46:18.415Z,25.55
2023-01-29T20:48:45.053Z,24.10
2023-01-29T20:51:15.610Z,26.48
2023-01-29T20:53:45.385Z,25.05
2023-01-29T20:56:13.265Z,27.47
2023-01-29T20:58:41.108Z,23.25
2023-01-29T21:01:12.375Z,25.50
2023-01-29T21:03:39.593Z,26.67
2023-01-29T21:06:07.470Z,24.15
2023-01-29T21:08:35.314Z,25.23
2023-01-29T21:11:02.746Z,26.42
2023-01-29T21:13:29.212Z,26.90
2023-01-29T21:15:55.695Z,29.58
2023-01-29T21:18:25.616Z,26.70
2023-01-29T21:20:53.278Z,24.90
2023-01-29T21:23:20.398Z,26.13
2023-01-29T21:25:46.932Z,26.38
2023-01-29T21:28:14.147Z,27.83
2023-01-29T21:30:40.857Z,27.08
2023-01-29T21:33:07.627Z,22.43
2023-01-29T21:35:36.739Z,27.33
2023-01-29T21:38:04.011Z,26.85
2023-01-29T21:40:30.550Z,26.42
2023-01-29T21:43:12.099Z,28.10
2023-01-29T21:45:39.584Z,26.37
2023-01-29T21:48:06.759Z,25.85
2023-01-29T21:50:33.306Z,28.48
2023-01-29T21:52:59.885Z,24.15
2023-01-29T21:55:27.789Z,27.13
2023-01-29T21:57:54.303Z,24.43
2023-01-29T22:00:20.925Z,24.75
2023-01-29T22:02:47.593Z,26.58
2023-01-29T22:05:19.261Z,25.35
2023-01-29T22:07:47.248Z,26.80
2023-01-29T22:10:14.602Z,26.80
2023-01-29T22:12:41.574Z,26.13
2023-01-29T22:15:09.224Z,20.77
2023-01-29T22:17:35.726Z,27.52
2023-01-29T22:20:02.632Z,26.52
2023-01-29T22:22:29.123Z,24.70
2023-01-29T22:24:57.631Z,24.23
2023-01-29T22:27:24.583Z,22.50
2023-01-29T22:29:51.072Z,26.80
2023-01-29T22:32:17.621Z,27.67
2023-01-29T22:34:44.112Z,26.40
2023-01-29T22:37:10.522Z,27.25
2023-01-29T22:39:37.004Z,24.40
2023-01-29T22:42:03.835Z,26.42
2023-01-29T22:44:30.346Z,28.83
2023-01-29T22:46:56.855Z,21.07
2023-01-29T22:49:25.081Z,23.55
2023-01-29T22:52:09.844Z,21.75
2023-01-29T22:54:41.187Z,24.95
2023-01-29T22:57:12.474Z,26.50
2023-01-29T22:59:39.337Z,22.77
2023-01-29T23:02:06.955Z,26.20
2023-01-29T23:04:33.704Z,26.55
2023-01-29T23:07:00.234Z,26.13
2023-01-29T23:09:26.752Z,26.38
2023-01-29T23:11:53.239Z,24.33
2023-01-29T23:14:19.807Z,28.17
2023-01-29T23:16:46.289Z,28.13
2023-01-29T23:19:12.760Z,25.83
2023-01-29T23:21:39.890Z,24.25
2023-01-29T23:24:07.664Z,27.73
2023-01-29T23:26:52.575Z,23.15
2023-01-29T23:29:19.159Z,25.58
2023-01-29T23:31:45.705Z,24.17
2023-01-29T23:34:12.200Z,25.38
2023-01-29T23:36:38.640Z,24.23
2023-01-29T23:39:05.261Z,22.48
2023-01-29T23:41:31.850Z,23.02
2023-01-29T23:43:58.389Z,23.38
2023-01-29T23:46:24.976Z,19.85
2023-01-29T23:48:51.585Z,19.87
2023-01-29T23:51:18.249Z,23.55
2023-01-29T23:53:44.771Z,22.17
2023-01-29T23:56:11.634Z,25.23
2023-01-29T23:58:38.192Z,22.98
